RYR1863 EICK-EGCC
Flight info
| Callsign | RYR1863 |
|---|---|
| Flight time | 0h 56m |
| Altitude | 31000 |
| Route | TISMO1N TISMO DCT BOFUM Q37 MALUD |
| Aircraft | B738/M-SDE2E3FGHIRWXY/LB1 |
Departure
| Time | 2026-05-06 04:41 |
|---|---|
| Airport | Cork International Airport (EICK) |
Arrival
| Time | 2026-05-06 05:38 |
|---|---|
| Airport | Manchester Airport (EGCC) |
| Time | Latitude | Longitude | Altitude | Speed | Heading |
|---|---|---|---|---|---|
| 2026-05-06 04:22 | 51.84937 | -8.49106 | 503 ft | 0 kts | 70° |
| 2026-05-06 04:33 | 51.84933 | -8.49125 | 503 ft | 4 kts | 70° |
| 2026-05-06 04:33 | 51.84923 | -8.49166 | 503 ft | 4 kts | 70° |
| 2026-05-06 04:33 | 51.84915 | -8.49202 | 503 ft | 2 kts | 70° |
| 2026-05-06 04:33 | 51.84910 | -8.49239 | 503 ft | 4 kts | 106° |
| 2026-05-06 04:34 | 51.84925 | -8.49268 | 503 ft | 4 kts | 160° |
| 2026-05-06 04:34 | 51.84935 | -8.49273 | 503 ft | 0 kts | 166° |
| 2026-05-06 04:36 | 51.84934 | -8.49273 | 503 ft | 1 kts | 166° |
| 2026-05-06 04:36 | 51.84926 | -8.49269 | 503 ft | 2 kts | 164° |
| 2026-05-06 04:36 | 51.84899 | -8.49257 | 503 ft | 6 kts | 162° |
| 2026-05-06 04:36 | 51.84837 | -8.49237 | 503 ft | 12 kts | 195° |
| 2026-05-06 04:37 | 51.84792 | -8.49341 | 503 ft | 12 kts | 250° |
| 2026-05-06 04:37 | 51.84753 | -8.49449 | 503 ft | 11 kts | 210° |
| 2026-05-06 04:37 | 51.84678 | -8.49436 | 503 ft | 12 kts | 160° |
| 2026-05-06 04:37 | 51.84589 | -8.49383 | 503 ft | 17 kts | 159° |
| 2026-05-06 04:38 | 51.84452 | -8.49299 | 503 ft | 25 kts | 159° |
| 2026-05-06 04:38 | 51.84273 | -8.49193 | 503 ft | 27 kts | 160° |
| 2026-05-06 04:38 | 51.84102 | -8.49094 | 503 ft | 26 kts | 160° |
| 2026-05-06 04:38 | 51.83939 | -8.48998 | 503 ft | 24 kts | 159° |
| 2026-05-06 04:39 | 51.83788 | -8.48906 | 503 ft | 23 kts | 159° |
| 2026-05-06 04:39 | 51.83641 | -8.48820 | 503 ft | 22 kts | 160° |
| 2026-05-06 04:39 | 51.83497 | -8.48737 | 503 ft | 22 kts | 160° |
| 2026-05-06 04:39 | 51.83352 | -8.48651 | 503 ft | 22 kts | 159° |
| 2026-05-06 04:40 | 51.83269 | -8.48527 | 503 ft | 11 kts | 171° |
| 2026-05-06 04:40 | 51.83262 | -8.48593 | 503 ft | 8 kts | 319° |
| 2026-05-06 04:40 | 51.83323 | -8.48636 | 503 ft | 17 kts | 339° |
| 2026-05-06 04:40 | 51.83598 | -8.48800 | 503 ft | 75 kts | 340° |
| 2026-05-06 04:41 | 51.84288 | -8.49208 | 503 ft | 134 kts | 340° |
| 2026-05-06 04:41 | 51.85252 | -8.49771 | 826 ft | 152 kts | 341° |
| 2026-05-06 04:41 | 51.86278 | -8.50326 | 1482 ft | 158 kts | 344° |
| 2026-05-06 04:41 | 51.87350 | -8.50857 | 2144 ft | 163 kts | 347° |
| 2026-05-06 04:42 | 51.88454 | -8.51337 | 2727 ft | 168 kts | 353° |
| 2026-05-06 04:42 | 51.89579 | -8.50907 | 3236 ft | 174 kts | 43° |
| 2026-05-06 04:42 | 51.90345 | -8.49378 | 3799 ft | 176 kts | 53° |
| 2026-05-06 04:42 | 51.91102 | -8.47755 | 4335 ft | 184 kts | 52° |
| 2026-05-06 04:43 | 51.91889 | -8.46078 | 4871 ft | 195 kts | 50° |
| 2026-05-06 04:43 | 51.92739 | -8.44279 | 5392 ft | 202 kts | 51° |
| 2026-05-06 04:43 | 51.93603 | -8.42465 | 5935 ft | 210 kts | 51° |
| 2026-05-06 04:43 | 51.94519 | -8.40551 | 6482 ft | 218 kts | 50° |
| 2026-05-06 04:44 | 51.95459 | -8.38595 | 6967 ft | 219 kts | 51° |
| 2026-05-06 04:44 | 51.96399 | -8.36647 | 7471 ft | 219 kts | 51° |
| 2026-05-06 04:44 | 51.97338 | -8.34705 | 7976 ft | 219 kts | 50° |
| 2026-05-06 04:44 | 51.98284 | -8.32753 | 8492 ft | 223 kts | 50° |
| 2026-05-06 04:45 | 51.99264 | -8.30733 | 8976 ft | 234 kts | 51° |
| 2026-05-06 04:45 | 52.00307 | -8.28586 | 9447 ft | 250 kts | 51° |
| 2026-05-06 04:45 | 52.01400 | -8.26333 | 9968 ft | 265 kts | 51° |
| 2026-05-06 04:45 | 52.02572 | -8.23917 | 10436 ft | 280 kts | 51° |
| 2026-05-06 04:46 | 52.03808 | -8.21368 | 10907 ft | 292 kts | 51° |
| 2026-05-06 04:46 | 52.05079 | -8.18745 | 11351 ft | 296 kts | 51° |
| 2026-05-06 04:46 | 52.06405 | -8.16007 | 11526 ft | 321 kts | 51° |
| 2026-05-06 04:46 | 52.07835 | -8.13051 | 11831 ft | 341 kts | 51° |
| 2026-05-06 04:47 | 52.08814 | -8.11024 | 12249 ft | 347 kts | 51° |
| 2026-05-06 04:47 | 52.10315 | -8.07916 | 13009 ft | 352 kts | 51° |
| 2026-05-06 04:47 | 52.11833 | -8.04769 | 13817 ft | 355 kts | 51° |
| 2026-05-06 04:47 | 52.13368 | -8.01584 | 14510 ft | 360 kts | 50° |
| 2026-05-06 04:48 | 52.15569 | -7.97491 | 15415 ft | 365 kts | 46° |
| 2026-05-06 04:48 | 52.16759 | -7.95456 | 15883 ft | 368 kts | 45° |
| 2026-05-06 04:48 | 52.18558 | -7.92442 | 16568 ft | 373 kts | 44° |
| 2026-05-06 04:48 | 52.20353 | -7.89444 | 17231 ft | 377 kts | 45° |
| 2026-05-06 04:49 | 52.22194 | -7.86355 | 17903 ft | 382 kts | 45° |
| 2026-05-06 04:49 | 52.24052 | -7.83212 | 18532 ft | 387 kts | 45° |
| 2026-05-06 04:49 | 52.25925 | -7.80025 | 19121 ft | 390 kts | 45° |
| 2026-05-06 04:49 | 52.27810 | -7.76798 | 19737 ft | 394 kts | 45° |
| 2026-05-06 04:50 | 52.29714 | -7.73529 | 20316 ft | 397 kts | 45° |
| 2026-05-06 04:50 | 52.31624 | -7.70239 | 20902 ft | 401 kts | 45° |
| 2026-05-06 04:50 | 52.33530 | -7.66948 | 21492 ft | 404 kts | 45° |
| 2026-05-06 04:50 | 52.35472 | -7.63592 | 22062 ft | 408 kts | 45° |
| 2026-05-06 04:51 | 52.37431 | -7.60200 | 22620 ft | 411 kts | 45° |
| 2026-05-06 04:51 | 52.39408 | -7.56772 | 23167 ft | 415 kts | 45° |
| 2026-05-06 04:51 | 52.41396 | -7.53321 | 23685 ft | 418 kts | 45° |
| 2026-05-06 04:51 | 52.43400 | -7.49835 | 24118 ft | 422 kts | 45° |
| 2026-05-06 04:52 | 52.45422 | -7.46315 | 24557 ft | 425 kts | 45° |
| 2026-05-06 04:52 | 52.47455 | -7.42771 | 24979 ft | 428 kts | 45° |
| 2026-05-06 04:52 | 52.49505 | -7.39191 | 25419 ft | 431 kts | 45° |
| 2026-05-06 04:52 | 52.51569 | -7.35583 | 25827 ft | 434 kts | 45° |
| 2026-05-06 04:53 | 52.53617 | -7.31996 | 26236 ft | 437 kts | 45° |
| 2026-05-06 04:53 | 52.55706 | -7.28332 | 26597 ft | 442 kts | 45° |
| 2026-05-06 04:53 | 52.57817 | -7.24625 | 26958 ft | 445 kts | 45° |
| 2026-05-06 04:53 | 52.59942 | -7.20887 | 27365 ft | 448 kts | 45° |
| 2026-05-06 04:54 | 52.62074 | -7.17131 | 27774 ft | 450 kts | 45° |
| 2026-05-06 04:54 | 52.64211 | -7.13359 | 28211 ft | 451 kts | 45° |
| 2026-05-06 04:54 | 52.66348 | -7.09580 | 28767 ft | 450 kts | 45° |
| 2026-05-06 04:54 | 52.68476 | -7.05813 | 29342 ft | 448 kts | 45° |
| 2026-05-06 04:55 | 52.70596 | -7.02053 | 29864 ft | 447 kts | 45° |
| 2026-05-06 04:55 | 52.72708 | -6.98303 | 30372 ft | 445 kts | 45° |
| 2026-05-06 04:55 | 52.74812 | -6.94561 | 30796 ft | 444 kts | 45° |
| 2026-05-06 04:55 | 52.76887 | -6.90866 | 31070 ft | 447 kts | 45° |
| 2026-05-06 04:56 | 52.79047 | -6.87017 | 31048 ft | 452 kts | 45° |
| 2026-05-06 04:56 | 52.83264 | -6.79477 | 31065 ft | 446 kts | 45° |
| 2026-05-06 04:57 | 52.87471 | -6.71932 | 31070 ft | 446 kts | 45° |
| 2026-05-06 04:57 | 52.91682 | -6.64359 | 31070 ft | 447 kts | 45° |
| 2026-05-06 04:58 | 52.95893 | -6.56761 | 31071 ft | 448 kts | 45° |
| 2026-05-06 04:58 | 53.00085 | -6.49174 | 31061 ft | 448 kts | 45° |
| 2026-05-06 04:59 | 53.04285 | -6.41547 | 31051 ft | 447 kts | 45° |
| 2026-05-06 04:59 | 53.08479 | -6.33910 | 31062 ft | 446 kts | 45° |
| 2026-05-06 05:00 | 53.12659 | -6.26273 | 31055 ft | 446 kts | 45° |
| 2026-05-06 05:00 | 53.16838 | -6.18615 | 31050 ft | 446 kts | 45° |
| 2026-05-06 05:01 | 53.21012 | -6.10943 | 31057 ft | 446 kts | 45° |
| 2026-05-06 05:01 | 53.25151 | -6.03308 | 31051 ft | 446 kts | 45° |
| 2026-05-06 05:02 | 53.29311 | -5.95613 | 31050 ft | 446 kts | 45° |
| 2026-05-06 05:02 | 53.33467 | -5.87902 | 31048 ft | 446 kts | 45° |
| 2026-05-06 05:03 | 53.37625 | -5.80162 | 31047 ft | 446 kts | 45° |
| 2026-05-06 05:03 | 53.41766 | -5.72428 | 31039 ft | 446 kts | 45° |
| 2026-05-06 05:04 | 53.45909 | -5.64666 | 31041 ft | 446 kts | 45° |
| 2026-05-06 05:04 | 53.50047 | -5.56891 | 31040 ft | 446 kts | 46° |
| 2026-05-06 05:04 | 53.51937 | -5.52840 | 31020 ft | 449 kts | 58° |
| 2026-05-06 05:05 | 53.53176 | -5.48019 | 31044 ft | 451 kts | 73° |
| 2026-05-06 05:05 | 53.53669 | -5.42807 | 31032 ft | 453 kts | 90° |
| 2026-05-06 05:05 | 53.53547 | -5.37523 | 31055 ft | 452 kts | 93° |
| 2026-05-06 05:06 | 53.53178 | -5.27038 | 30952 ft | 442 kts | 93° |
| 2026-05-06 05:06 | 53.53038 | -5.21918 | 30634 ft | 435 kts | 92° |
| 2026-05-06 05:06 | 53.52916 | -5.16871 | 30346 ft | 430 kts | 92° |
| 2026-05-06 05:06 | 53.52785 | -5.11868 | 29934 ft | 427 kts | 93° |
| 2026-05-06 05:07 | 53.52628 | -5.06902 | 29510 ft | 424 kts | 93° |
| 2026-05-06 05:07 | 53.52461 | -5.01969 | 29111 ft | 420 kts | 93° |
| 2026-05-06 05:07 | 53.52295 | -4.97070 | 28713 ft | 417 kts | 93° |
| 2026-05-06 05:07 | 53.52133 | -4.92219 | 28301 ft | 415 kts | 93° |
| 2026-05-06 05:08 | 53.51970 | -4.87386 | 27914 ft | 412 kts | 93° |
| 2026-05-06 05:08 | 53.51810 | -4.82646 | 27512 ft | 410 kts | 93° |
| 2026-05-06 05:08 | 53.51648 | -4.77886 | 27117 ft | 407 kts | 93° |
| 2026-05-06 05:08 | 53.51487 | -4.73147 | 26730 ft | 405 kts | 93° |
| 2026-05-06 05:09 | 53.51324 | -4.68423 | 26343 ft | 403 kts | 93° |
| 2026-05-06 05:09 | 53.51160 | -4.63718 | 25952 ft | 402 kts | 93° |
| 2026-05-06 05:09 | 53.50995 | -4.59042 | 25575 ft | 400 kts | 93° |
| 2026-05-06 05:09 | 53.50829 | -4.54390 | 25199 ft | 398 kts | 93° |
| 2026-05-06 05:10 | 53.50662 | -4.49742 | 24813 ft | 397 kts | 93° |
| 2026-05-06 05:10 | 53.50494 | -4.45119 | 24436 ft | 396 kts | 93° |
| 2026-05-06 05:10 | 53.50324 | -4.40520 | 24051 ft | 395 kts | 93° |
| 2026-05-06 05:10 | 53.50153 | -4.35913 | 23668 ft | 394 kts | 93° |
| 2026-05-06 05:11 | 53.49981 | -4.31326 | 23230 ft | 393 kts | 93° |
| 2026-05-06 05:11 | 53.49809 | -4.26799 | 22803 ft | 391 kts | 93° |
| 2026-05-06 05:11 | 53.49635 | -4.22257 | 22415 ft | 389 kts | 93° |
| 2026-05-06 05:11 | 53.49460 | -4.17738 | 22029 ft | 386 kts | 93° |
| 2026-05-06 05:12 | 53.49285 | -4.13250 | 21649 ft | 384 kts | 93° |
| 2026-05-06 05:12 | 53.49110 | -4.08787 | 21275 ft | 382 kts | 93° |
| 2026-05-06 05:12 | 53.48933 | -4.04334 | 20900 ft | 380 kts | 93° |
| 2026-05-06 05:12 | 53.48756 | -3.99923 | 20540 ft | 383 kts | 93° |
| 2026-05-06 05:13 | 53.48446 | -3.95468 | 20148 ft | 382 kts | 102° |
| 2026-05-06 05:13 | 53.47695 | -3.91217 | 19772 ft | 380 kts | 109° |
| 2026-05-06 05:13 | 53.46811 | -3.87047 | 19348 ft | 378 kts | 110° |
| 2026-05-06 05:13 | 53.45919 | -3.82897 | 18934 ft | 377 kts | 110° |
| 2026-05-06 05:14 | 53.45044 | -3.78777 | 18515 ft | 372 kts | 109° |
| 2026-05-06 05:14 | 53.44189 | -3.74703 | 18070 ft | 366 kts | 109° |
| 2026-05-06 05:14 | 53.43358 | -3.70694 | 17615 ft | 361 kts | 109° |
| 2026-05-06 05:14 | 53.42538 | -3.66750 | 17156 ft | 356 kts | 109° |
| 2026-05-06 05:15 | 53.41728 | -3.62863 | 16703 ft | 351 kts | 109° |
| 2026-05-06 05:15 | 53.41100 | -3.58936 | 16247 ft | 346 kts | 96° |
| 2026-05-06 05:15 | 53.40904 | -3.55000 | 15832 ft | 341 kts | 92° |
| 2026-05-06 05:15 | 53.40777 | -3.51051 | 15400 ft | 337 kts | 92° |
| 2026-05-06 05:16 | 53.40651 | -3.47145 | 14972 ft | 334 kts | 92° |
| 2026-05-06 05:16 | 53.40511 | -3.43271 | 14557 ft | 331 kts | 92° |
| 2026-05-06 05:16 | 53.40358 | -3.39440 | 14144 ft | 328 kts | 92° |
| 2026-05-06 05:16 | 53.40198 | -3.35642 | 13720 ft | 325 kts | 93° |
| 2026-05-06 05:17 | 53.40033 | -3.31876 | 13257 ft | 322 kts | 93° |
| 2026-05-06 05:17 | 53.39866 | -3.28140 | 12810 ft | 320 kts | 93° |
| 2026-05-06 05:17 | 53.39699 | -3.24437 | 12361 ft | 317 kts | 93° |
| 2026-05-06 05:17 | 53.39531 | -3.20768 | 11925 ft | 315 kts | 93° |
| 2026-05-06 05:18 | 53.39363 | -3.17120 | 11515 ft | 312 kts | 93° |
| 2026-05-06 05:18 | 53.39405 | -3.13534 | 11080 ft | 306 kts | 73° |
| 2026-05-06 05:18 | 53.40190 | -3.10331 | 10736 ft | 297 kts | 59° |
| 2026-05-06 05:18 | 53.41212 | -3.07342 | 10373 ft | 294 kts | 56° |
| 2026-05-06 05:19 | 53.42254 | -3.04417 | 10002 ft | 291 kts | 56° |
| 2026-05-06 05:19 | 53.43287 | -3.01522 | 9604 ft | 288 kts | 56° |
| 2026-05-06 05:19 | 53.44305 | -2.98644 | 9209 ft | 285 kts | 57° |
| 2026-05-06 05:19 | 53.45307 | -2.95788 | 8824 ft | 282 kts | 57° |
| 2026-05-06 05:20 | 53.46292 | -2.92963 | 8479 ft | 278 kts | 57° |
| 2026-05-06 05:20 | 53.47259 | -2.90175 | 8127 ft | 275 kts | 58° |
| 2026-05-06 05:20 | 53.48211 | -2.87421 | 7784 ft | 271 kts | 58° |
| 2026-05-06 05:20 | 53.49149 | -2.84702 | 7466 ft | 268 kts | 58° |
| 2026-05-06 05:21 | 53.50078 | -2.82005 | 7154 ft | 265 kts | 58° |
| 2026-05-06 05:21 | 53.51012 | -2.79301 | 7102 ft | 271 kts | 58° |
| 2026-05-06 05:21 | 53.51945 | -2.76581 | 7086 ft | 270 kts | 58° |
| 2026-05-06 05:21 | 53.52873 | -2.73872 | 7081 ft | 265 kts | 58° |
| 2026-05-06 05:22 | 53.53788 | -2.71201 | 7080 ft | 261 kts | 58° |
| 2026-05-06 05:22 | 53.54683 | -2.68549 | 6998 ft | 261 kts | 59° |
| 2026-05-06 05:22 | 53.55555 | -2.65876 | 6832 ft | 259 kts | 60° |
| 2026-05-06 05:22 | 53.56339 | -2.63180 | 6674 ft | 254 kts | 63° |
| 2026-05-06 05:23 | 53.57074 | -2.60502 | 6528 ft | 250 kts | 64° |
| 2026-05-06 05:23 | 53.57766 | -2.57850 | 6392 ft | 246 kts | 65° |
| 2026-05-06 05:23 | 53.59012 | -2.52605 | 6054 ft | 236 kts | 66° |
| 2026-05-06 05:24 | 53.59587 | -2.50040 | 5891 ft | 231 kts | 66° |
| 2026-05-06 05:24 | 53.60147 | -2.47514 | 5721 ft | 230 kts | 67° |
| 2026-05-06 05:24 | 53.60709 | -2.44980 | 5545 ft | 233 kts | 67° |
| 2026-05-06 05:24 | 53.61277 | -2.42432 | 5381 ft | 230 kts | 67° |
| 2026-05-06 05:25 | 53.61823 | -2.39976 | 5183 ft | 218 kts | 67° |
| 2026-05-06 05:25 | 53.62326 | -2.37619 | 5012 ft | 210 kts | 68° |
| 2026-05-06 05:25 | 53.62808 | -2.35334 | 4845 ft | 205 kts | 67° |
| 2026-05-06 05:25 | 53.63296 | -2.33108 | 4676 ft | 199 kts | 67° |
| 2026-05-06 05:26 | 53.63771 | -2.30959 | 4505 ft | 193 kts | 67° |
| 2026-05-06 05:26 | 53.64241 | -2.28847 | 4348 ft | 192 kts | 67° |
| 2026-05-06 05:26 | 53.64711 | -2.26756 | 4187 ft | 191 kts | 67° |
| 2026-05-06 05:26 | 53.65185 | -2.24659 | 4060 ft | 192 kts | 67° |
| 2026-05-06 05:27 | 53.65663 | -2.22562 | 3943 ft | 190 kts | 67° |
| 2026-05-06 05:27 | 53.66139 | -2.20497 | 3792 ft | 188 kts | 67° |
| 2026-05-06 05:27 | 53.66685 | -2.18532 | 3677 ft | 187 kts | 59° |
| 2026-05-06 05:27 | 53.67322 | -2.16607 | 3559 ft | 189 kts | 60° |
| 2026-05-06 05:28 | 53.67956 | -2.14690 | 3517 ft | 185 kts | 60° |
| 2026-05-06 05:28 | 53.68579 | -2.12807 | 3519 ft | 185 kts | 60° |
| 2026-05-06 05:28 | 53.69208 | -2.10899 | 3514 ft | 187 kts | 60° |
| 2026-05-06 05:28 | 53.69834 | -2.08975 | 3491 ft | 187 kts | 64° |
| 2026-05-06 05:29 | 53.69919 | -2.06877 | 3535 ft | 185 kts | 109° |
| 2026-05-06 05:29 | 53.69018 | -2.05354 | 3525 ft | 188 kts | 150° |
| 2026-05-06 05:29 | 53.67770 | -2.04624 | 3512 ft | 193 kts | 165° |
| 2026-05-06 05:29 | 53.66431 | -2.04270 | 3522 ft | 197 kts | 168° |
| 2026-05-06 05:30 | 53.65064 | -2.03959 | 3527 ft | 199 kts | 169° |
| 2026-05-06 05:30 | 53.63681 | -2.03640 | 3527 ft | 201 kts | 168° |
| 2026-05-06 05:30 | 53.62303 | -2.03315 | 3500 ft | 198 kts | 168° |
| 2026-05-06 05:30 | 53.60977 | -2.02996 | 3506 ft | 192 kts | 168° |
| 2026-05-06 05:31 | 53.59621 | -2.02663 | 3526 ft | 197 kts | 168° |
| 2026-05-06 05:31 | 53.58265 | -2.02324 | 3530 ft | 201 kts | 168° |
| 2026-05-06 05:31 | 53.56881 | -2.01976 | 3508 ft | 199 kts | 168° |
| 2026-05-06 05:31 | 53.55525 | -2.01635 | 3495 ft | 194 kts | 167° |
| 2026-05-06 05:32 | 53.54187 | -2.01289 | 3520 ft | 197 kts | 168° |
| 2026-05-06 05:32 | 53.52825 | -2.00945 | 3517 ft | 197 kts | 168° |
| 2026-05-06 05:32 | 53.51471 | -2.00601 | 3495 ft | 196 kts | 168° |
| 2026-05-06 05:32 | 53.50143 | -2.00263 | 3496 ft | 190 kts | 168° |
| 2026-05-06 05:33 | 53.49273 | -2.00156 | 3488 ft | 191 kts | 184° |
| 2026-05-06 05:33 | 53.48115 | -2.01195 | 3535 ft | 194 kts | 231° |
| 2026-05-06 05:33 | 53.47013 | -2.03593 | 3513 ft | 195 kts | 232° |
| 2026-05-06 05:33 | 53.46159 | -2.05347 | 3448 ft | 193 kts | 231° |
| 2026-05-06 05:34 | 53.45587 | -2.06516 | 3318 ft | 191 kts | 231° |
| 2026-05-06 05:34 | 53.44767 | -2.08197 | 3044 ft | 184 kts | 230° |
| 2026-05-06 05:34 | 53.43970 | -2.09834 | 2817 ft | 182 kts | 230° |
| 2026-05-06 05:34 | 53.43168 | -2.11478 | 2565 ft | 179 kts | 230° |
| 2026-05-06 05:35 | 53.42391 | -2.13074 | 2303 ft | 175 kts | 230° |
| 2026-05-06 05:35 | 53.41637 | -2.14623 | 2087 ft | 170 kts | 229° |
| 2026-05-06 05:35 | 53.40881 | -2.16175 | 1825 ft | 171 kts | 229° |
| 2026-05-06 05:35 | 53.40148 | -2.17682 | 1594 ft | 167 kts | 230° |
| 2026-05-06 05:36 | 53.39428 | -2.19163 | 1345 ft | 159 kts | 229° |
| 2026-05-06 05:36 | 53.38749 | -2.20559 | 1130 ft | 152 kts | 230° |
| 2026-05-06 05:36 | 53.38092 | -2.21912 | 922 ft | 149 kts | 230° |
| 2026-05-06 05:36 | 53.37431 | -2.23270 | 702 ft | 150 kts | 231° |
| 2026-05-06 05:37 | 53.36773 | -2.24621 | 522 ft | 150 kts | 230° |
| 2026-05-06 05:37 | 53.36113 | -2.25964 | 321 ft | 148 kts | 231° |
| 2026-05-06 05:37 | 53.35509 | -2.27216 | 248 ft | 116 kts | 231° |
| 2026-05-06 05:37 | 53.35135 | -2.27991 | 232 ft | 56 kts | 231° |
| 2026-05-06 05:38 | 53.34966 | -2.28441 | 231 ft | 42 kts | 254° |
| 2026-05-06 05:38 | 53.34947 | -2.28695 | 227 ft | 13 kts | 290° |
| 2026-05-06 05:38 | 53.35020 | -2.28726 | 226 ft | 13 kts | 36° |
| 2026-05-06 05:38 | 53.35078 | -2.28620 | 228 ft | 12 kts | 51° |
| 2026-05-06 05:39 | 53.35132 | -2.28507 | 226 ft | 13 kts | 51° |
| 2026-05-06 05:39 | 53.35188 | -2.28391 | 228 ft | 13 kts | 51° |
| 2026-05-06 05:39 | 53.35244 | -2.28275 | 231 ft | 13 kts | 51° |
| 2026-05-06 05:39 | 53.35310 | -2.28156 | 233 ft | 14 kts | 44° |
| 2026-05-06 05:40 | 53.35379 | -2.28045 | 236 ft | 14 kts | 44° |
| 2026-05-06 05:40 | 53.35461 | -2.27913 | 238 ft | 18 kts | 44° |
| 2026-05-06 05:40 | 53.35557 | -2.27758 | 238 ft | 20 kts | 43° |
| 2026-05-06 05:40 | 53.35655 | -2.27599 | 245 ft | 20 kts | 49° |
| 2026-05-06 05:41 | 53.35733 | -2.27434 | 254 ft | 17 kts | 52° |
| 2026-05-06 05:41 | 53.35809 | -2.27282 | 254 ft | 15 kts | 51° |
| 2026-05-06 05:41 | 53.35799 | -2.27139 | 254 ft | 13 kts | 110° |
| 2026-05-06 05:41 | 53.35826 | -2.27008 | 254 ft | 12 kts | 58° |
| 2026-05-06 05:42 | 53.35871 | -2.26895 | 255 ft | 7 kts | 54° |
| 2026-05-06 05:42 | 53.35903 | -2.26848 | 255 ft | 6 kts | 13° |
| 2026-05-06 05:42 | 53.35921 | -2.26860 | 254 ft | 2 kts | 313° |
| 2026-05-06 05:42 | 53.35923 | -2.26890 | 254 ft | 4 kts | 269° |
| 2026-05-06 05:43 | 53.35923 | -2.26954 | 254 ft | 2 kts | 272° |
| 2026-05-06 05:43 | 53.35924 | -2.26982 | 254 ft | 2 kts | 276° |
| 2026-05-06 05:43 | 53.35924 | -2.26986 | 254 ft | 0 kts | 276° |